Time;durP1;ratioP1;P1;durP2;ratioP2;P2;SDS_P1;SDS_P2;PMS_P1;PMS_P2;Temp;Humidity;BMP_temperature;BMP_pressure;BME280_temperature;BME280_humidity;BME280_pressure;Samples;Min_cycle;Max_cycle;Signal;HPM_P1;HPM_P2
2021/07/24 00:01:10;;;;;;;15.95;9.68;;;18.50;78.80;;;;;;4977766;28;20419;-67
2021/07/24 00:03:37;;;;;;;13.85;9.52;;;18.50;79.20;;;;;;4977013;28;20057;-67
2021/07/24 00:06:04;;;;;;;14.40;8.80;;;18.40;79.40;;;;;;4981610;28;20486;-67
2021/07/24 00:08:30;;;;;;;15.00;10.25;;;18.30;79.60;;;;;;4978734;28;20041;-67
2021/07/24 00:10:55;;;;;;;15.40;9.90;;;18.20;79.90;;;;;;4977446;28;20050;-67
2021/07/24 00:13:22;;;;;;;14.20;9.07;;;18.10;80.40;;;;;;4979158;28;20502;-67
2021/07/24 00:15:48;;;;;;;15.73;10.20;;;18.10;80.80;;;;;;4978731;28;20030;-67
2021/07/24 00:18:14;;;;;;;14.30;9.50;;;18.00;81.00;;;;;;4978955;28;20042;-67
2021/07/24 00:20:40;;;;;;;13.95;9.07;;;18.00;81.40;;;;;;4977982;28;20053;-67
2021/07/24 00:23:11;;;;;;;15.75;9.65;;;17.90;81.50;;;;;;4977995;28;20414;-67
2021/07/24 00:25:40;;;;;;;15.85;9.45;;;17.90;81.60;;;;;;4977677;28;20490;-68
2021/07/24 00:28:06;;;;;;;16.75;10.25;;;17.90;81.90;;;;;;4978591;28;20042;-66
2021/07/24 00:30:32;;;;;;;14.00;10.38;;;17.80;82.00;;;;;;4977344;28;20608;-66
2021/07/24 00:32:57;;;;;;;19.63;10.23;;;17.80;82.20;;;;;;4978186;28;20046;-67
2021/07/24 00:35:23;;;;;;;15.23;10.55;;;17.80;82.40;;;;;;4981876;28;20398;-66
2021/07/24 00:37:49;;;;;;;14.32;9.63;;;17.80;82.40;;;;;;4972780;28;20074;-67
2021/07/24 00:40:16;;;;;;;16.95;9.68;;;17.70;82.20;;;;;;4977127;28;20035;-67
2021/07/24 00:42:49;;;;;;;14.13;10.00;;;17.70;82.40;;;;;;4976660;28;20084;-67
2021/07/24 00:45:16;;;;;;;18.05;10.57;;;17.70;82.60;;;;;;4977181;28;20390;-67
2021/07/24 00:47:45;;;;;;;20.05;11.18;;;17.70;82.80;;;;;;4978005;28;20045;-67
2021/07/24 00:50:15;;;;;;;13.60;9.40;;;17.70;82.70;;;;;;4978643;28;20129;-66
2021/07/24 00:52:42;;;;;;;17.50;10.65;;;17.70;82.80;;;;;;4974944;28;20061;-66
2021/07/24 00:55:11;;;;;;;15.32;9.75;;;17.70;82.30;;;;;;4978121;28;20057;-66
2021/07/24 00:57:38;;;;;;;18.42;10.63;;;17.70;81.90;;;;;;4979853;28;20422;-66
2021/07/24 01:00:07;;;;;;;19.88;10.63;;;17.70;81.70;;;;;;4976311;28;20089;-66
2021/07/24 01:02:33;;;;;;;15.50;9.93;;;17.70;81.80;;;;;;4976914;28;20057;-66
2021/07/24 01:05:01;;;;;;;16.33;10.57;;;17.70;82.60;;;;;;4994037;28;20505;-66
2021/07/24 01:07:27;;;;;;;14.05;10.27;;;17.70;82.40;;;;;;4984529;28;20534;-66
2021/07/24 01:09:53;;;;;;;9.38;6.70;;;17.60;82.60;;;;;;4997635;28;20125;-66
2021/07/24 01:12:19;;;;;;;14.68;9.65;;;17.60;83.80;;;;;;4996839;28;20046;-66
2021/07/24 01:14:45;;;;;;;14.90;9.48;;;17.70;83.50;;;;;;4997163;28;20100;-66
2021/07/24 01:17:11;;;;;;;18.77;10.88;;;17.70;82.80;;;;;;4998889;28;20143;-66
2021/07/24 01:19:36;;;;;;;16.98;9.82;;;17.60;82.80;;;;;;4995775;28;20121;-66
2021/07/24 01:22:02;;;;;;;14.60;10.20;;;17.60;83.00;;;;;;4996660;28;20042;-66
2021/07/24 01:24:28;;;;;;;15.68;9.98;;;17.60;83.10;;;;;;4997185;28;20482;-66
2021/07/24 01:26:54;;;;;;;14.00;9.73;;;17.60;83.30;;;;;;4998202;28;20030;-66
2021/07/24 01:29:22;;;;;;;15.30;10.30;;;17.60;83.40;;;;;;4997419;28;20525;-66
2021/07/24 01:31:48;;;;;;;11.25;8.98;;;17.60;83.70;;;;;;4995876;28;20042;-66
2021/07/24 01:34:15;;;;;;;15.75;10.93;;;17.50;83.40;;;;;;4997145;28;20037;-66
2021/07/24 01:36:41;;;;;;;12.43;9.55;;;17.60;83.20;;;;;;4997939;28;20057;-67
2021/07/24 01:39:09;;;;;;;16.65;10.07;;;17.50;83.20;;;;;;4996291;28;20052;-66
2021/07/24 01:41:35;;;;;;;14.82;10.27;;;17.50;82.80;;;;;;4996668;28;20417;-66
2021/07/24 01:44:01;;;;;;;15.10;9.80;;;17.50;83.20;;;;;;4996701;28;20041;-66
2021/07/24 01:46:27;;;;;;;15.90;10.10;;;17.40;83.00;;;;;;4996405;28;20038;-67
2021/07/24 01:54:24;;;;;;;11.48;7.28;;;17.50;84.30;;;;;;4996978;28;20105;-66
2021/07/24 01:56:53;;;;;;;12.35;7.78;;;17.60;85.10;;;;;;4998464;28;20490;-66
2021/07/24 01:59:26;;;;;;;10.52;7.40;;;17.70;84.40;;;;;;4995789;28;20038;-66
2021/07/24 02:01:55;;;;;;;10.75;7.57;;;17.70;83.20;;;;;;4996477;28;20081;-66
2021/07/24 02:04:24;;;;;;;10.90;7.65;;;17.70;84.10;;;;;;4998990;28;20160;-66
2021/07/24 02:06:49;;;;;;;10.18;7.80;;;17.70;82.70;;;;;;5000846;28;20528;-66
2021/07/24 02:09:16;;;;;;;7.82;6.13;;;17.60;81.90;;;;;;5000465;28;20067;-66
2021/07/24 02:11:44;;;;;;;13.02;7.65;;;17.70;84.00;;;;;;4998801;28;20040;-66
2021/07/24 02:14:09;;;;;;;7.53;5.82;;;17.70;83.30;;;;;;5000941;28;20041;-66
2021/07/24 02:16:36;;;;;;;10.27;7.95;;;17.70;84.90;;;;;;4988596;28;20453;-66
2021/07/24 02:19:02;;;;;;;8.90;6.20;;;17.70;84.00;;;;;;4999556;28;20506;-67
2021/07/24 02:21:31;;;;;;;7.20;5.68;;;17.80;85.30;;;;;;4999441;28;20390;-66
2021/07/24 02:23:57;;;;;;;13.32;8.35;;;17.90;86.20;;;;;;4999802;28;20141;-67
2021/07/24 02:26:23;;;;;;;12.20;8.10;;;18.10;84.70;;;;;;4999640;28;20104;-67
2021/07/24 02:28:49;;;;;;;11.50;7.10;;;18.10;82.50;;;;;;4999965;28;20038;-66
2021/07/24 02:31:15;;;;;;;10.88;7.95;;;18.10;82.90;;;;;;4998772;28;20445;-66
2021/07/24 02:33:40;;;;;;;13.38;8.52;;;18.20;82.40;;;;;;5000167;28;20038;-67
2021/07/24 02:36:06;;;;;;;7.53;5.53;;;18.40;81.60;;;;;;5000766;28;20084;-67
2021/07/24 02:38:32;;;;;;;9.35;6.93;;;18.40;82.80;;;;;;5000602;28;20040;-67
2021/07/24 02:40:58;;;;;;;8.68;6.05;;;18.50;82.50;;;;;;4999000;28;20513;-66
2021/07/24 02:43:25;;;;;;;10.00;6.68;;;18.60;81.60;;;;;;4999253;28;20041;-67
2021/07/24 02:45:51;;;;;;;7.40;5.57;;;18.60;80.80;;;;;;4998864;28;20099;-66
2021/07/24 02:48:17;;;;;;;9.43;7.28;;;18.60;82.10;;;;;;4982399;28;20064;-66
2021/07/24 02:50:43;;;;;;;9.50;6.63;;;18.60;80.90;;;;;;4999560;28;20560;-67
2021/07/24 02:53:09;;;;;;;9.85;6.65;;;18.60;80.60;;;;;;4998908;28;20034;-68
2021/07/24 02:55:34;;;;;;;9.85;5.70;;;18.60;78.90;;;;;;4999511;28;20037;-67
2021/07/24 02:58:01;;;;;;;9.48;6.60;;;18.50;80.10;;;;;;5000523;28;20042;-67
2021/07/24 03:00:26;;;;;;;11.82;6.70;;;18.50;79.40;;;;;;4998240;28;20390;-67
2021/07/24 03:02:52;;;;;;;9.75;6.30;;;18.40;78.40;;;;;;4998024;28;22186;-66
2021/07/24 03:05:18;;;;;;;7.28;4.93;;;18.20;78.70;;;;;;4980713;28;20054;-66
2021/07/24 03:07:44;;;;;;;8.48;6.00;;;18.20;82.30;;;;;;4999467;28;20041;-66
2021/07/24 03:10:10;;;;;;;11.50;6.55;;;18.10;80.70;;;;;;4999407;28;20529;-66
2021/07/24 03:12:36;;;;;;;9.80;7.15;;;18.10;78.90;;;;;;4980831;28;20064;-66
2021/07/24 03:15:03;;;;;;;8.80;7.25;;;17.90;78.40;;;;;;4997970;28;20272;-66
2021/07/24 03:17:30;;;;;;;11.32;7.80;;;17.70;78.80;;;;;;5000691;28;20045;-66
2021/07/24 03:19:55;;;;;;;11.55;8.00;;;17.60;79.70;;;;;;4997528;28;20035;-66
2021/07/24 03:22:21;;;;;;;10.68;6.80;;;17.50;79.60;;;;;;4999376;28;20049;-66
2021/07/24 03:24:47;;;;;;;11.45;7.10;;;17.40;79.50;;;;;;4998497;28;20196;-66
2021/07/24 03:27:16;;;;;;;9.82;7.15;;;17.30;79.10;;;;;;4999571;28;20042;-66
2021/07/24 03:29:42;;;;;;;10.00;7.00;;;17.30;79.50;;;;;;4998745;28;20089;-66
2021/07/24 03:32:07;;;;;;;9.40;6.78;;;17.30;80.30;;;;;;4979706;28;20044;-66
2021/07/24 03:34:33;;;;;;;9.48;6.80;;;17.30;81.10;;;;;;4998631;28;20378;-66
2021/07/24 03:36:59;;;;;;;9.27;7.40;;;17.30;82.10;;;;;;4999578;28;20113;-66
2021/07/24 03:39:25;;;;;;;10.15;7.00;;;17.30;81.00;;;;;;4998045;28;20580;-66
2021/07/24 03:41:50;;;;;;;10.82;7.65;;;17.30;81.60;;;;;;4997605;28;20161;-66
2021/07/24 03:44:16;;;;;;;7.97;6.82;;;17.40;81.20;;;;;;4998290;28;20038;-66
2021/07/24 03:46:42;;;;;;;12.38;7.82;;;17.30;80.80;;;;;;4998548;28;20042;-66
2021/07/24 03:49:08;;;;;;;13.75;7.32;;;17.40;81.00;;;;;;4998793;28;20038;-66
2021/07/24 03:51:33;;;;;;;13.40;8.30;;;17.40;81.70;;;;;;4997252;28;20069;-66
2021/07/24 03:53:59;;;;;;;10.30;7.00;;;17.40;81.10;;;;;;4998691;28;20042;-66
2021/07/24 03:56:25;;;;;;;10.25;6.80;;;17.40;81.00;;;;;;4981522;28;20040;-66
2021/07/24 03:58:53;;;;;;;12.40;8.35;;;17.50;80.70;;;;;;4998059;28;20406;-66
2021/07/24 04:01:20;;;;;;;14.63;8.52;;;17.60;81.00;;;;;;4979170;28;20112;-66
2021/07/24 04:03:46;;;;;;;11.38;7.90;;;17.70;81.30;;;;;;4998553;28;20490;-66
2021/07/24 04:06:21;;;;;;;9.60;7.45;;;17.80;81.00;;;;;;4997786;28;20042;-66
2021/07/24 04:08:47;;;;;;;12.55;9.13;;;17.70;81.90;;;;;;4997938;28;20046;-66
2021/07/24 04:11:14;;;;;;;5.80;5.07;;;17.80;81.40;;;;;;4996586;28;20081;-71
2021/07/24 04:13:39;;;;;;;13.98;8.30;;;17.80;83.10;;;;;;4998089;28;20040;-66
2021/07/24 04:16:06;;;;;;;11.95;7.57;;;17.80;82.40;;;;;;4999347;28;20038;-66
2021/07/24 04:18:34;;;;;;;13.40;8.30;;;17.70;82.30;;;;;;4998045;28;20474;-66
2021/07/24 04:21:00;;;;;;;10.23;7.72;;;17.70;81.50;;;;;;4997617;28;20549;-66
2021/07/24 04:23:26;;;;;;;11.98;6.85;;;17.60;80.20;;;;;;4997529;28;20099;-67
2021/07/24 04:25:52;;;;;;;9.40;5.85;;;17.60;81.50;;;;;;4997280;28;20634;-67
2021/07/24 04:28:18;;;;;;;10.45;7.03;;;17.60;82.70;;;;;;4998234;28;20049;-66
2021/07/24 04:30:44;;;;;;;7.47;5.72;;;17.60;81.80;;;;;;4997964;28;20046;-66
2021/07/24 04:33:10;;;;;;;10.80;6.13;;;17.70;82.00;;;;;;4997598;28;20694;-66
2021/07/24 04:35:36;;;;;;;8.15;6.00;;;17.70;82.00;;;;;;4998394;28;20480;-66
2021/07/24 04:38:02;;;;;;;9.70;7.10;;;17.70;80.60;;;;;;4999181;28;20035;-66
2021/07/24 04:40:27;;;;;;;11.15;6.40;;;17.70;79.20;;;;;;4997357;28;20081;-66
2021/07/24 04:42:53;;;;;;;8.80;6.80;;;17.60;79.00;;;;;;4982975;28;20042;-66
2021/07/24 04:45:19;;;;;;;10.05;6.63;;;17.50;79.00;;;;;;4997105;28;20037;-66
2021/07/24 04:47:45;;;;;;;10.68;7.18;;;17.50;79.20;;;;;;4997537;28;20067;-66
2021/07/24 04:50:12;;;;;;;12.60;6.72;;;17.50;79.60;;;;;;4997649;28;20053;-66
2021/07/24 04:52:38;;;;;;;8.55;6.50;;;17.50;79.60;;;;;;4996903;28;20042;-66
2021/07/24 04:55:04;;;;;;;9.85;6.88;;;17.50;80.60;;;;;;4997655;28;20038;-66
2021/07/24 04:57:33;;;;;;;10.23;7.28;;;17.40;80.00;;;;;;4999246;28;20508;-66
2021/07/24 05:00:00;;;;;;;12.95;8.00;;;17.40;80.10;;;;;;4995973;28;20055;-67
2021/07/24 05:02:27;;;;;;;8.85;7.28;;;17.40;80.30;;;;;;4996645;28;20037;-66
2021/07/24 05:04:54;;;;;;;8.93;5.80;;;17.50;81.00;;;;;;4984473;28;20145;-66
2021/07/24 05:07:22;;;;;;;10.68;7.38;;;17.50;82.80;;;;;;4979520;28;20433;-66
2021/07/24 05:09:47;;;;;;;9.88;6.50;;;17.60;80.90;;;;;;4998217;28;20042;-67
2021/07/24 05:12:13;;;;;;;11.65;6.72;;;17.60;80.40;;;;;;4996107;28;20049;-67
2021/07/24 05:14:40;;;;;;;10.93;7.30;;;17.70;81.10;;;;;;4997333;28;20575;-67
2021/07/24 05:17:08;;;;;;;9.70;7.20;;;17.80;80.00;;;;;;4998353;28;20390;-67
2021/07/24 05:19:38;;;;;;;11.07;7.32;;;17.80;79.10;;;;;;4996654;28;20037;-67
2021/07/24 05:22:05;;;;;;;8.13;4.97;;;17.90;79.40;;;;;;4996936;28;20127;-67
2021/07/24 05:24:32;;;;;;;9.93;7.18;;;17.90;80.60;;;;;;4997124;28;20508;-70
2021/07/24 05:26:58;;;;;;;13.00;6.82;;;18.00;80.20;;;;;;4996735;28;20490;-69
2021/07/24 05:29:24;;;;;;;13.60;6.80;;;18.00;79.30;;;;;;4997529;28;20038;-70
2021/07/24 05:31:50;;;;;;;11.43;7.57;;;18.00;79.30;;;;;;4995708;28;20042;-70
2021/07/24 05:34:16;;;;;;;10.93;7.00;;;18.00;77.90;;;;;;4997718;28;20049;-70
2021/07/24 05:36:42;;;;;;;15.90;7.82;;;17.90;78.50;;;;;;4998260;28;20478;-69
2021/07/24 05:39:08;;;;;;;7.20;5.13;;;17.90;78.90;;;;;;4998173;28;20034;-70
2021/07/24 05:41:34;;;;;;;8.77;6.63;;;17.80;80.60;;;;;;5001119;28;20172;-71
2021/07/24 05:43:59;;;;;;;12.38;7.40;;;17.80;79.20;;;;;;5000941;28;20038;-71
2021/07/24 05:46:25;;;;;;;9.32;6.75;;;17.90;78.60;;;;;;5000151;28;20041;-70
2021/07/24 05:48:51;;;;;;;12.48;7.32;;;17.90;78.30;;;;;;4982963;28;20038;-70
2021/07/24 05:51:16;;;;;;;10.05;7.72;;;17.90;79.20;;;;;;4999389;28;20034;-67
2021/07/24 05:53:42;;;;;;;9.50;7.10;;;17.90;79.20;;;;;;5001380;28;20045;-67
2021/07/24 05:56:08;;;;;;;9.50;7.45;;;17.90;78.80;;;;;;5001355;28;20045;-67
2021/07/24 05:58:34;;;;;;;8.25;6.60;;;18.00;78.90;;;;;;5001157;28;20038;-66
2021/07/24 06:01:00;;;;;;;12.77;8.05;;;17.90;78.20;;;;;;4999550;28;20050;-69
2021/07/24 06:03:29;;;;;;;9.82;7.72;;;17.90;78.30;;;;;;4999979;28;20142;-69
2021/07/24 06:05:55;;;;;;;10.90;7.80;;;17.90;78.70;;;;;;4999799;28;20117;-69
2021/07/24 06:08:21;;;;;;;11.35;8.88;;;17.80;78.90;;;;;;5000492;28;20149;-66
2021/07/24 06:10:46;;;;;;;13.18;7.68;;;17.80;79.50;;;;;;4986994;28;20034;-66
2021/07/24 06:13:12;;;;;;;11.68;8.88;;;17.80;79.70;;;;;;4999815;28;20035;-67
2021/07/24 06:15:42;;;;;;;10.07;8.13;;;17.80;79.80;;;;;;4982717;28;20093;-70
2021/07/24 06:18:08;;;;;;;11.70;8.70;;;17.80;79.80;;;;;;4983587;28;20053;-67
2021/07/24 06:20:37;;;;;;;13.13;9.32;;;17.80;80.00;;;;;;4999026;28;20828;-70
2021/07/24 06:23:04;;;;;;;11.93;9.13;;;17.90;80.10;;;;;;4998969;28;20049;-76
2021/07/24 06:25:30;;;;;;;12.88;8.95;;;17.90;80.30;;;;;;4999664;28;20504;-72
2021/07/24 06:27:56;;;;;;;15.13;10.27;;;18.00;80.20;;;;;;5000384;28;20042;-74
2021/07/24 06:30:22;;;;;;;16.15;10.05;;;18.10;80.60;;;;;;4999992;28;20053;-67
2021/07/24 06:32:48;;;;;;;13.45;9.50;;;18.10;80.60;;;;;;4999566;28;20052;-67
2021/07/24 06:35:14;;;;;;;13.68;9.60;;;18.20;80.80;;;;;;4999419;28;20038;-76
2021/07/24 06:37:41;;;;;;;12.65;9.40;;;18.20;80.70;;;;;;5000668;28;20042;-70
2021/07/24 06:40:08;;;;;;;14.07;8.77;;;18.20;80.50;;;;;;4999074;28;20076;-64
2021/07/24 06:42:37;;;;;;;15.50;10.48;;;18.30;80.40;;;;;;4999254;28;20096;-65
2021/07/24 06:45:04;;;;;;;12.38;9.10;;;18.30;80.00;;;;;;4999306;28;20052;-65
2021/07/24 06:47:33;;;;;;;15.85;9.65;;;18.40;79.90;;;;;;4999563;28;20045;-64
2021/07/24 06:49:58;;;;;;;12.20;9.77;;;18.50;80.00;;;;;;4998954;28;20046;-65
2021/07/24 06:52:24;;;;;;;12.63;8.52;;;18.60;79.90;;;;;;4999349;28;20041;-68
2021/07/24 06:54:50;;;;;;;14.07;8.90;;;18.80;79.60;;;;;;4999690;28;20528;-69
2021/07/24 06:57:16;;;;;;;16.02;9.07;;;18.90;79.40;;;;;;5000766;28;20473;-68
2021/07/24 06:59:42;;;;;;;12.90;9.35;;;19.10;79.70;;;;;;4981554;28;20052;-67
2021/07/24 07:02:10;;;;;;;13.48;9.88;;;19.30;79.50;;;;;;4985658;28;20039;-69
2021/07/24 07:04:36;;;;;;;10.23;8.50;;;19.40;78.80;;;;;;4998513;28;20050;-68
2021/07/24 07:07:03;;;;;;;13.07;8.82;;;19.60;78.30;;;;;;4986994;28;20034;-68
2021/07/24 07:09:29;;;;;;;10.95;8.07;;;19.80;77.80;;;;;;4999103;28;21949;-69
2021/07/24 07:11:58;;;;;;;13.13;8.40;;;20.10;77.30;;;;;;4998233;28;20049;-69
2021/07/24 07:14:24;;;;;;;11.95;7.40;;;20.30;76.10;;;;;;4999283;28;20038;-70
2021/07/24 07:16:51;;;;;;;10.93;7.47;;;20.30;75.50;;;;;;5000959;28;20038;-69
2021/07/24 07:19:18;;;;;;;10.43;8.55;;;20.30;75.30;;;;;;4997935;28;20096;-69
2021/07/24 07:21:43;;;;;;;11.52;8.93;;;20.40;75.20;;;;;;4999083;28;20042;-68
2021/07/24 07:24:09;;;;;;;11.55;7.38;;;20.40;74.00;;;;;;4980911;28;20046;-69
2021/07/24 07:26:35;;;;;;;9.60;7.85;;;20.30;74.90;;;;;;4999405;28;20033;-70
2021/07/24 07:29:04;;;;;;;8.40;7.25;;;20.40;75.00;;;;;;4999192;28;20072;-71
2021/07/24 07:31:30;;;;;;;11.75;7.45;;;20.50;74.60;;;;;;4996029;28;20336;-71
2021/07/24 07:33:56;;;;;;;10.10;7.53;;;20.70;74.00;;;;;;4964231;28;20100;-70
2021/07/24 07:36:22;;;;;;;17.38;7.72;;;20.90;73.70;;;;;;4996947;28;20035;-69
2021/07/24 07:38:48;;;;;;;9.95;7.95;;;20.90;71.80;;;;;;4996636;28;20070;-69
2021/07/24 07:41:14;;;;;;;10.73;7.25;;;20.80;71.50;;;;;;4998580;28;20121;-69
2021/07/24 07:43:40;;;;;;;13.82;8.80;;;20.80;72.70;;;;;;4998496;28;20073;-69
2021/07/24 07:46:05;;;;;;;10.75;8.38;;;20.80;72.50;;;;;;4996690;28;20435;-69
2021/07/24 07:48:35;;;;;;;12.95;8.75;;;20.80;72.60;;;;;;4998813;28;20152;-65
2021/07/24 07:51:05;;;;;;;10.80;7.97;;;20.80;72.70;;;;;;4999011;28;20057;-64
2021/07/24 07:53:31;;;;;;;11.50;7.93;;;20.90;73.20;;;;;;4997696;28;20042;-64
2021/07/24 07:55:57;;;;;;;11.38;7.97;;;21.00;73.20;;;;;;4981057;28;20069;-64
2021/07/24 07:58:23;;;;;;;12.82;8.52;;;21.30;72.50;;;;;;4984380;28;20405;-63
2021/07/24 08:00:50;;;;;;;13.93;9.20;;;21.50;72.10;;;;;;4996594;28;20046;-65
2021/07/24 08:03:17;;;;;;;14.73;8.32;;;21.70;70.40;;;;;;4998165;28;20034;-63
2021/07/24 08:05:43;;;;;;;13.93;9.48;;;21.50;69.90;;;;;;4997285;28;20506;-65
2021/07/24 08:08:09;;;;;;;11.27;7.97;;;21.30;71.40;;;;;;4999465;28;20049;-63
2021/07/24 08:10:34;;;;;;;10.50;8.35;;;21.10;72.80;;;;;;4998793;28;20034;-63
2021/07/24 08:13:14;;;;;;;13.82;8.38;;;21.30;72.90;;;;;;4997212;28;20035;-65
2021/07/24 08:15:41;;;;;;;10.98;8.00;;;21.40;72.70;;;;;;4997441;28;20038;-63
2021/07/24 08:18:06;;;;;;;9.60;7.57;;;21.60;71.80;;;;;;4980883;28;20394;-63
2021/07/24 08:20:33;;;;;;;12.43;8.77;;;21.90;71.20;;;;;;4997648;28;20037;-65
2021/07/24 08:22:59;;;;;;;11.30;9.00;;;22.00;70.30;;;;;;4997364;28;20065;-64
2021/07/24 08:25:25;;;;;;;10.98;7.15;;;21.90;70.10;;;;;;4998805;28;20496;-68
2021/07/24 08:27:51;;;;;;;11.43;8.15;;;21.80;70.50;;;;;;4981153;28;20037;-63
2021/07/24 08:30:17;;;;;;;10.10;7.68;;;21.80;70.90;;;;;;4998009;28;20049;-63
2021/07/24 08:32:43;;;;;;;17.65;11.73;;;22.00;70.50;;;;;;4997944;28;20043;-64
2021/07/24 08:35:10;;;;;;;10.38;7.35;;;22.20;69.20;;;;;;4997037;28;20379;-64
2021/07/24 08:37:35;;;;;;;8.45;6.07;;;22.40;67.50;;;;;;4997914;28;20048;-63
2021/07/24 08:40:02;;;;;;;9.57;6.63;;;22.50;66.10;;;;;;4996670;28;20045;-64
2021/07/24 08:42:29;;;;;;;7.78;6.05;;;22.60;65.30;;;;;;4996359;28;20046;-65
2021/07/24 08:44:56;;;;;;;9.38;6.38;;;22.70;65.30;;;;;;4995636;28;20041;-64
2021/07/24 08:47:22;;;;;;;10.07;6.75;;;22.80;64.80;;;;;;4996141;28;20066;-64
2021/07/24 08:49:48;;;;;;;8.32;6.93;;;23.00;64.20;;;;;;4985576;28;20448;-64
2021/07/24 08:52:18;;;;;;;9.45;5.90;;;23.00;63.90;;;;;;4988638;28;20154;-64
2021/07/24 08:54:44;;;;;;;8.60;6.57;;;23.20;64.10;;;;;;4989275;28;20033;-64
2021/07/24 08:57:13;;;;;;;9.52;6.90;;;23.40;63.30;;;;;;4988407;28;20049;-63
2021/07/24 08:59:41;;;;;;;11.48;6.65;;;23.60;62.70;;;;;;4987850;28;20044;-63
2021/07/24 09:02:09;;;;;;;8.25;6.18;;;23.50;62.30;;;;;;4988247;28;20038;-63
2021/07/24 09:04:36;;;;;;;10.93;7.55;;;23.40;63.20;;;;;;4970890;28;20215;-63
2021/07/24 09:07:05;;;;;;;10.13;6.72;;;23.60;62.60;;;;;;4988627;28;20034;-63
2021/07/24 09:09:32;;;;;;;7.97;6.32;;;23.90;62.00;;;;;;4970763;28;20421;-63
2021/07/24 09:11:58;;;;;;;11.38;7.50;;;24.10;61.50;;;;;;4987037;28;20058;-63
2021/07/24 09:14:25;;;;;;;13.23;8.02;;;24.10;61.50;;;;;;4989271;28;20057;-63
2021/07/24 09:16:52;;;;;;;11.65;7.97;;;24.30;61.20;;;;;;4982203;28;20081;-63
2021/07/24 09:19:18;;;;;;;11.43;7.40;;;24.30;61.10;;;;;;4995046;28;20056;-64
2021/07/24 09:21:44;;;;;;;9.10;7.43;;;24.40;60.60;;;;;;4977795;28;20045;-64
2021/07/24 09:24:28;;;;;;;12.23;7.13;;;24.60;60.10;;;;;;4995377;28;20642;-64
2021/07/24 09:26:53;;;;;;;11.80;7.22;;;24.40;60.90;;;;;;4994082;28;20069;-63
2021/07/24 09:29:20;;;;;;;9.35;7.50;;;24.40;61.60;;;;;;4994111;28;20122;-63
2021/07/24 09:31:48;;;;;;;10.70;7.80;;;24.60;61.00;;;;;;4995513;28;20045;-64
2021/07/24 09:34:15;;;;;;;12.38;7.90;;;24.60;61.00;;;;;;4996470;28;20061;-72
2021/07/24 09:36:42;;;;;;;10.35;7.55;;;24.60;61.50;;;;;;4997320;28;20058;-71
2021/07/24 09:39:14;;;;;;;12.80;7.90;;;24.50;61.20;;;;;;4994628;28;20033;-71
2021/07/24 09:41:42;;;;;;;12.05;7.55;;;24.30;60.90;;;;;;4996583;28;20088;-71
2021/07/24 09:44:08;;;;;;;11.68;8.15;;;24.20;62.40;;;;;;4996033;28;20063;-71
2021/07/24 09:46:34;;;;;;;12.93;8.15;;;24.30;62.10;;;;;;4996248;28;20666;-71
2021/07/24 09:49:14;;;;;;;12.02;8.40;;;24.50;61.50;;;;;;4995575;28;20061;-72
2021/07/24 09:51:48;;;;;;;10.10;7.78;;;24.70;61.50;;;;;;4996655;28;20080;-71
2021/07/24 09:54:27;;;;;;;12.75;9.13;;;24.80;60.90;;;;;;4997242;28;20142;-63
2021/07/24 09:56:54;;;;;;;11.02;8.00;;;24.90;60.90;;;;;;4995148;28;20061;-71
2021/07/24 09:59:31;;;;;;;12.75;8.05;;;25.00;61.40;;;;;;4995568;28;20119;-72
2021/07/24 10:02:02;;;;;;;8.35;6.18;;;25.10;60.80;;;;;;4996117;28;20069;-71
2021/07/24 10:04:39;;;;;;;11.65;8.13;;;25.20;60.10;;;;;;4997155;28;20061;-71
2021/07/24 10:07:07;;;;;;;9.57;6.95;;;25.10;60.60;;;;;;4997170;28;20065;-71
2021/07/24 10:09:34;;;;;;;10.05;7.13;;;25.10;60.70;;;;;;4995911;28;20367;-71
2021/07/24 10:12:02;;;;;;;14.15;7.70;;;25.20;60.40;;;;;;4996950;28;20042;-63
2021/07/24 10:14:29;;;;;;;10.77;7.85;;;25.20;59.90;;;;;;4998439;28;20033;-63
2021/07/24 10:16:56;;;;;;;15.57;7.75;;;25.30;60.10;;;;;;4995800;28;20057;-63
2021/07/24 10:19:24;;;;;;;9.30;7.85;;;25.40;59.60;;;;;;4995722;28;20033;-63
2021/07/24 10:21:52;;;;;;;10.02;7.38;;;25.10;59.80;;;;;;4994768;28;20628;-63
2021/07/24 10:24:18;;;;;;;12.18;7.43;;;25.00;60.00;;;;;;4998517;28;20053;-64
2021/07/24 10:26:57;;;;;;;12.05;7.28;;;24.90;60.60;;;;;;4998328;28;20104;-63
2021/07/24 10:29:32;;;;;;;15.95;12.05;;;24.90;60.90;;;;;;4987425;28;20073;-63
2021/07/24 10:32:10;;;;;;;17.55;14.75;;;25.00;61.30;;;;;;4999718;28;20034;-63
2021/07/24 10:34:40;;;;;;;12.00;7.95;;;24.80;61.00;;;;;;4999925;28;20451;-63
2021/07/24 10:37:32;;;;;;;11.57;8.55;;;24.60;61.80;;;;;;4988172;28;20544;-63
2021/07/24 10:40:21;;;;;;;9.50;7.63;;;24.50;61.70;;;;;;5000112;28;20064;-63
2021/07/24 10:42:48;;;;;;;9.38;6.90;;;24.50;63.20;;;;;;5000018;28;20061;-63
2021/07/24 10:45:37;;;;;;;16.40;8.20;;;24.60;61.90;;;;;;4999197;28;20042;-63
2021/07/24 10:48:14;;;;;;;12.80;7.95;;;24.90;60.50;;;;;;4999632;28;20038;-63
2021/07/24 10:50:52;;;;;;;8.98;7.85;;;24.70;60.80;;;;;;4999504;28;20077;-63
2021/07/24 10:53:18;;;;;;;10.77;8.10;;;24.50;60.90;;;;;;4999386;28;20046;-63
2021/07/24 10:55:45;;;;;;;13.23;7.63;;;24.40;61.10;;;;;;5000036;28;20041;-63
2021/07/24 10:58:11;;;;;;;11.45;8.10;;;24.30;61.60;;;;;;4999440;28;20034;-63
2021/07/24 11:00:40;;;;;;;9.38;6.90;;;24.20;62.10;;;;;;4997800;28;20157;-63
2021/07/24 11:03:28;;;;;;;11.25;7.63;;;24.20;62.40;;;;;;4984061;28;20057;-65
2021/07/24 11:05:55;;;;;;;8.15;6.72;;;24.20;62.60;;;;;;5000826;28;20046;-71
2021/07/24 11:09:01;;;;;;;9.60;7.35;;;24.10;62.20;;;;;;4998987;28;20038;-71
2021/07/24 11:11:44;;;;;;;10.52;7.55;;;24.00;62.60;;;;;;4987128;28;20034;-72
2021/07/24 11:14:35;;;;;;;10.50;6.60;;;24.10;63.80;;;;;;4999853;28;20045;-72
2021/07/24 11:17:14;;;;;;;11.32;7.07;;;24.40;63.70;;;;;;4996766;28;20042;-72
2021/07/24 11:19:51;;;;;;;10.32;7.65;;;24.70;63.20;;;;;;4997317;28;20264;-72
2021/07/24 11:22:27;;;;;;;12.88;6.90;;;24.80;62.80;;;;;;5000297;28;20161;-65
2021/07/24 11:24:53;;;;;;;12.32;6.93;;;25.00;62.60;;;;;;4998616;28;20045;-65
2021/07/24 11:27:28;;;;;;;10.32;6.05;;;25.20;61.80;;;;;;4998812;28;20045;-66
2021/07/24 11:30:06;;;;;;;10.50;6.35;;;25.30;61.40;;;;;;4998320;28;20050;-65
2021/07/24 11:32:32;;;;;;;6.53;5.50;;;25.50;60.90;;;;;;4998970;28;20363;-65
2021/07/24 11:35:06;;;;;;;8.48;5.72;;;25.60;60.80;;;;;;4997561;28;20042;-67
2021/07/24 11:37:39;;;;;;;7.65;5.45;;;25.60;60.50;;;;;;4998807;28;20336;-63
2021/07/24 11:40:07;;;;;;;8.68;6.10;;;25.70;60.40;;;;;;4999681;28;20042;-63
2021/07/24 11:42:34;;;;;;;8.07;5.85;;;25.60;60.70;;;;;;4998189;28;20052;-66
2021/07/24 11:44:59;;;;;;;13.63;6.28;;;25.60;60.00;;;;;;4997989;28;20074;-66
2021/07/24 11:47:28;;;;;;;9.02;5.72;;;25.60;60.40;;;;;;4985491;28;20061;-65
2021/07/24 11:50:13;;;;;;;7.78;5.45;;;25.60;60.00;;;;;;4999027;28;20041;-66
2021/07/24 11:52:39;;;;;;;8.05;5.47;;;25.70;59.20;;;;;;4997899;28;20058;-67
2021/07/24 11:55:05;;;;;;;7.82;5.38;;;25.50;60.00;;;;;;4999456;28;20512;-66
2021/07/24 11:57:31;;;;;;;10.43;5.40;;;25.50;60.20;;;;;;4999637;28;20920;-66
2021/07/24 11:59:59;;;;;;;11.43;6.00;;;25.60;59.20;;;;;;4980815;28;20131;-66
2021/07/24 12:02:25;;;;;;;14.00;5.55;;;25.50;59.10;;;;;;4980141;28;20046;-65
2021/07/24 12:04:51;;;;;;;6.70;5.60;;;25.40;59.40;;;;;;4984991;28;20050;-65
2021/07/24 12:07:19;;;;;;;7.90;5.45;;;25.50;59.40;;;;;;4998316;28;20044;-66
2021/07/24 12:09:45;;;;;;;8.50;5.82;;;25.50;59.90;;;;;;4998640;28;20053;-71
2021/07/24 12:12:12;;;;;;;7.05;5.43;;;25.40;59.40;;;;;;4997536;28;20041;-72
2021/07/24 12:14:38;;;;;;;9.82;6.25;;;25.40;60.00;;;;;;4999346;28;20046;-71
2021/07/24 12:17:13;;;;;;;6.75;5.85;;;25.30;59.30;;;;;;4998858;28;20046;-71
2021/07/24 12:19:43;;;;;;;10.68;5.68;;;25.30;59.70;;;;;;4998280;28;20814;-71
2021/07/24 12:22:15;;;;;;;8.85;5.82;;;25.30;59.90;;;;;;4998305;28;20088;-70
2021/07/24 12:24:41;;;;;;;8.63;6.05;;;25.40;59.60;;;;;;4998195;28;20057;-70
2021/07/24 12:27:12;;;;;;;7.05;5.53;;;25.30;59.10;;;;;;4998849;28;20039;-68
2021/07/24 12:29:59;;;;;;;13.57;6.60;;;25.30;58.70;;;;;;4996590;28;20037;-68
2021/07/24 12:32:38;;;;;;;9.18;6.25;;;25.20;58.80;;;;;;4998420;28;20041;-67
2021/07/24 12:35:14;;;;;;;7.85;5.63;;;25.10;59.80;;;;;;4999281;28;20049;-68
2021/07/24 12:37:40;;;;;;;8.55;6.05;;;25.10;61.10;;;;;;4997713;28;20034;-70
2021/07/24 12:40:19;;;;;;;7.32;5.88;;;25.20;60.60;;;;;;4996864;28;20108;-68
2021/07/24 12:42:46;;;;;;;8.70;6.75;;;25.30;60.80;;;;;;4997080;28;20053;-68
2021/07/24 12:45:31;;;;;;;10.57;6.05;;;25.40;60.80;;;;;;4997724;28;20038;-68
2021/07/24 12:48:20;;;;;;;7.93;6.35;;;25.40;61.10;;;;;;4995620;28;20124;-68